sensor_id;sensor_type;location;lat;lon;timestamp;P1;durP1;ratioP1;P2;durP2;ratioP2
20449;SDS011;10384;51.940;8.432;2024-03-25T00:00:13;11.33;;;2.13;;
20449;SDS011;10384;51.940;8.432;2024-03-25T00:02:40;5.07;;;1.63;;
20449;SDS011;10384;51.940;8.432;2024-03-25T00:05:06;7.33;;;1.73;;
20449;SDS011;10384;51.940;8.432;2024-03-25T00:07:39;9.23;;;1.37;;
20449;SDS011;10384;51.940;8.432;2024-03-25T00:10:05;7.47;;;1.60;;
20449;SDS011;10384;51.940;8.432;2024-03-25T00:12:33;7.63;;;1.63;;
20449;SDS011;10384;51.940;8.432;2024-03-25T00:14:59;9.53;;;1.77;;
20449;SDS011;10384;51.940;8.432;2024-03-25T00:17:25;9.03;;;1.83;;
20449;SDS011;10384;51.940;8.432;2024-03-25T00:19:51;8.67;;;1.70;;
20449;SDS011;10384;51.940;8.432;2024-03-25T00:22:18;7.03;;;1.70;;
20449;SDS011;10384;51.940;8.432;2024-03-25T00:24:44;7.93;;;1.40;;
20449;SDS011;10384;51.940;8.432;2024-03-25T00:27:11;5.27;;;1.77;;
20449;SDS011;10384;51.940;8.432;2024-03-25T00:29:37;6.27;;;1.53;;
20449;SDS011;10384;51.940;8.432;2024-03-25T00:32:03;12.40;;;2.00;;
20449;SDS011;10384;51.940;8.432;2024-03-25T00:34:29;6.07;;;1.83;;
20449;SDS011;10384;51.940;8.432;2024-03-25T00:36:55;8.70;;;1.87;;
20449;SDS011;10384;51.940;8.432;2024-03-25T00:39:21;12.17;;;2.20;;
20449;SDS011;10384;51.940;8.432;2024-03-25T00:41:47;7.87;;;1.77;;
20449;SDS011;10384;51.940;8.432;2024-03-25T00:44:14;10.50;;;2.10;;
20449;SDS011;10384;51.940;8.432;2024-03-25T00:46:40;12.77;;;2.97;;
20449;SDS011;10384;51.940;8.432;2024-03-25T00:49:07;12.20;;;2.17;;
20449;SDS011;10384;51.940;8.432;2024-03-25T00:51:33;12.07;;;1.90;;
20449;SDS011;10384;51.940;8.432;2024-03-25T00:53:59;16.23;;;2.50;;
20449;SDS011;10384;51.940;8.432;2024-03-25T00:56:25;10.43;;;2.03;;
20449;SDS011;10384;51.940;8.432;2024-03-25T00:58:51;9.63;;;2.40;;
20449;SDS011;10384;51.940;8.432;2024-03-25T01:01:17;7.83;;;1.97;;
20449;SDS011;10384;51.940;8.432;2024-03-25T01:03:43;6.80;;;1.63;;
20449;SDS011;10384;51.940;8.432;2024-03-25T01:06:09;6.40;;;1.67;;
20449;SDS011;10384;51.940;8.432;2024-03-25T01:08:35;6.83;;;1.87;;
20449;SDS011;10384;51.940;8.432;2024-03-25T01:11:01;10.90;;;2.27;;
20449;SDS011;10384;51.940;8.432;2024-03-25T01:13:27;13.47;;;2.20;;
20449;SDS011;10384;51.940;8.432;2024-03-25T01:15:53;9.40;;;2.10;;
20449;SDS011;10384;51.940;8.432;2024-03-25T01:18:19;14.50;;;2.43;;
20449;SDS011;10384;51.940;8.432;2024-03-25T01:20:45;10.53;;;1.90;;
20449;SDS011;10384;51.940;8.432;2024-03-25T01:23:11;9.57;;;2.00;;
20449;SDS011;10384;51.940;8.432;2024-03-25T01:25:37;6.03;;;2.00;;
20449;SDS011;10384;51.940;8.432;2024-03-25T01:28:03;7.77;;;1.97;;
20449;SDS011;10384;51.940;8.432;2024-03-25T01:30:29;12.27;;;2.37;;
20449;SDS011;10384;51.940;8.432;2024-03-25T01:32:56;15.83;;;3.03;;
20449;SDS011;10384;51.940;8.432;2024-03-25T01:35:22;12.27;;;2.73;;
20449;SDS011;10384;51.940;8.432;2024-03-25T01:37:48;12.13;;;2.00;;
20449;SDS011;10384;51.940;8.432;2024-03-25T01:40:15;8.63;;;2.10;;
20449;SDS011;10384;51.940;8.432;2024-03-25T01:42:41;6.87;;;2.33;;
20449;SDS011;10384;51.940;8.432;2024-03-25T01:45:07;8.37;;;2.30;;
20449;SDS011;10384;51.940;8.432;2024-03-25T01:47:35;12.60;;;1.97;;
20449;SDS011;10384;51.940;8.432;2024-03-25T01:50:03;9.27;;;2.40;;
20449;SDS011;10384;51.940;8.432;2024-03-25T01:52:29;10.47;;;2.33;;
20449;SDS011;10384;51.940;8.432;2024-03-25T01:54:56;9.27;;;2.00;;
20449;SDS011;10384;51.940;8.432;2024-03-25T01:57:22;12.13;;;1.97;;
20449;SDS011;10384;51.940;8.432;2024-03-25T01:59:49;8.77;;;1.73;;
20449;SDS011;10384;51.940;8.432;2024-03-25T02:02:15;8.53;;;2.10;;
20449;SDS011;10384;51.940;8.432;2024-03-25T02:04:42;8.53;;;1.70;;
20449;SDS011;10384;51.940;8.432;2024-03-25T02:07:08;9.20;;;1.60;;
20449;SDS011;10384;51.940;8.432;2024-03-25T02:09:36;9.47;;;1.83;;
20449;SDS011;10384;51.940;8.432;2024-03-25T02:12:03;9.33;;;2.20;;
20449;SDS011;10384;51.940;8.432;2024-03-25T02:14:29;10.23;;;1.90;;
20449;SDS011;10384;51.940;8.432;2024-03-25T02:16:55;8.83;;;1.73;;
20449;SDS011;10384;51.940;8.432;2024-03-25T02:19:21;7.73;;;1.90;;
20449;SDS011;10384;51.940;8.432;2024-03-25T02:21:49;12.40;;;1.90;;
20449;SDS011;10384;51.940;8.432;2024-03-25T02:24:15;7.23;;;1.77;;
20449;SDS011;10384;51.940;8.432;2024-03-25T02:26:41;6.77;;;1.70;;
20449;SDS011;10384;51.940;8.432;2024-03-25T02:29:10;8.67;;;2.07;;
20449;SDS011;10384;51.940;8.432;2024-03-25T02:31:36;9.83;;;2.03;;
20449;SDS011;10384;51.940;8.432;2024-03-25T02:34:02;8.37;;;2.23;;
20449;SDS011;10384;51.940;8.432;2024-03-25T02:36:28;8.57;;;1.93;;
20449;SDS011;10384;51.940;8.432;2024-03-25T02:38:54;7.10;;;2.07;;
20449;SDS011;10384;51.940;8.432;2024-03-25T02:41:20;7.33;;;1.87;;
20449;SDS011;10384;51.940;8.432;2024-03-25T02:43:49;9.83;;;2.33;;
20449;SDS011;10384;51.940;8.432;2024-03-25T02:46:15;13.27;;;2.77;;
20449;SDS011;10384;51.940;8.432;2024-03-25T02:48:41;12.30;;;2.10;;
20449;SDS011;10384;51.940;8.432;2024-03-25T02:51:07;10.43;;;1.83;;
20449;SDS011;10384;51.940;8.432;2024-03-25T02:53:33;16.60;;;2.17;;
20449;SDS011;10384;51.940;8.432;2024-03-25T02:55:59;8.53;;;1.83;;
20449;SDS011;10384;51.940;8.432;2024-03-25T02:58:25;9.93;;;2.07;;
20449;SDS011;10384;51.940;8.432;2024-03-25T03:00:51;10.03;;;3.10;;
20449;SDS011;10384;51.940;8.432;2024-03-25T03:03:17;11.57;;;1.83;;
20449;SDS011;10384;51.940;8.432;2024-03-25T03:05:43;8.57;;;2.17;;
20449;SDS011;10384;51.940;8.432;2024-03-25T03:08:09;16.77;;;2.13;;
20449;SDS011;10384;51.940;8.432;2024-03-25T03:10:35;8.67;;;2.17;;
20449;SDS011;10384;51.940;8.432;2024-03-25T03:13:01;12.83;;;2.60;;
20449;SDS011;10384;51.940;8.432;2024-03-25T03:15:27;9.70;;;2.20;;
20449;SDS011;10384;51.940;8.432;2024-03-25T03:17:53;9.90;;;2.43;;
20449;SDS011;10384;51.940;8.432;2024-03-25T03:20:19;9.63;;;1.63;;
20449;SDS011;10384;51.940;8.432;2024-03-25T03:22:45;11.13;;;1.80;;
20449;SDS011;10384;51.940;8.432;2024-03-25T03:25:12;10.10;;;1.90;;
20449;SDS011;10384;51.940;8.432;2024-03-25T03:27:38;10.13;;;2.00;;
20449;SDS011;10384;51.940;8.432;2024-03-25T03:30:05;12.23;;;2.33;;
20449;SDS011;10384;51.940;8.432;2024-03-25T03:32:31;9.53;;;2.50;;
20449;SDS011;10384;51.940;8.432;2024-03-25T03:34:57;12.47;;;2.30;;
20449;SDS011;10384;51.940;8.432;2024-03-25T03:37:23;11.93;;;2.53;;
20449;SDS011;10384;51.940;8.432;2024-03-25T03:39:49;12.73;;;2.97;;
20449;SDS011;10384;51.940;8.432;2024-03-25T03:42:15;10.17;;;2.03;;
20449;SDS011;10384;51.940;8.432;2024-03-25T03:44:41;12.37;;;2.10;;
20449;SDS011;10384;51.940;8.432;2024-03-25T03:47:07;13.23;;;2.27;;
20449;SDS011;10384;51.940;8.432;2024-03-25T03:49:33;19.00;;;2.13;;
20449;SDS011;10384;51.940;8.432;2024-03-25T03:51:59;9.73;;;1.70;;
20449;SDS011;10384;51.940;8.432;2024-03-25T03:54:25;16.33;;;2.30;;
20449;SDS011;10384;51.940;8.432;2024-03-25T03:56:51;12.70;;;2.63;;
20449;SDS011;10384;51.940;8.432;2024-03-25T03:59:17;10.50;;;2.20;;
20449;SDS011;10384;51.940;8.432;2024-03-25T04:01:43;13.50;;;2.47;;
20449;SDS011;10384;51.940;8.432;2024-03-25T04:04:09;16.30;;;3.07;;
20449;SDS011;10384;51.940;8.432;2024-03-25T04:06:35;13.77;;;2.40;;
20449;SDS011;10384;51.940;8.432;2024-03-25T04:09:01;11.73;;;1.83;;
20449;SDS011;10384;51.940;8.432;2024-03-25T04:11:29;4.27;;;1.87;;
20449;SDS011;10384;51.940;8.432;2024-03-25T04:13:55;8.20;;;1.80;;
20449;SDS011;10384;51.940;8.432;2024-03-25T04:16:21;9.20;;;2.03;;
20449;SDS011;10384;51.940;8.432;2024-03-25T04:18:47;12.43;;;2.10;;
20449;SDS011;10384;51.940;8.432;2024-03-25T04:21:14;11.13;;;3.07;;
20449;SDS011;10384;51.940;8.432;2024-03-25T04:23:40;14.00;;;2.50;;
20449;SDS011;10384;51.940;8.432;2024-03-25T04:26:06;11.07;;;2.33;;
20449;SDS011;10384;51.940;8.432;2024-03-25T04:28:33;11.03;;;2.07;;
20449;SDS011;10384;51.940;8.432;2024-03-25T04:31:00;16.23;;;2.33;;
20449;SDS011;10384;51.940;8.432;2024-03-25T04:33:26;13.87;;;2.83;;
20449;SDS011;10384;51.940;8.432;2024-03-25T04:35:52;12.97;;;2.60;;
20449;SDS011;10384;51.940;8.432;2024-03-25T04:38:18;12.60;;;2.30;;
20449;SDS011;10384;51.940;8.432;2024-03-25T04:40:44;12.53;;;2.20;;
20449;SDS011;10384;51.940;8.432;2024-03-25T04:43:10;12.37;;;2.40;;
20449;SDS011;10384;51.940;8.432;2024-03-25T04:45:36;12.67;;;2.00;;
20449;SDS011;10384;51.940;8.432;2024-03-25T04:48:02;8.97;;;2.27;;
20449;SDS011;10384;51.940;8.432;2024-03-25T04:50:28;12.50;;;2.30;;
20449;SDS011;10384;51.940;8.432;2024-03-25T04:52:56;13.97;;;2.27;;
20449;SDS011;10384;51.940;8.432;2024-03-25T04:55:22;8.90;;;1.83;;
20449;SDS011;10384;51.940;8.432;2024-03-25T04:57:48;8.47;;;1.90;;
20449;SDS011;10384;51.940;8.432;2024-03-25T05:00:14;10.63;;;2.10;;
20449;SDS011;10384;51.940;8.432;2024-03-25T05:02:40;9.33;;;2.30;;
20449;SDS011;10384;51.940;8.432;2024-03-25T05:05:06;11.57;;;1.73;;
20449;SDS011;10384;51.940;8.432;2024-03-25T05:07:32;9.53;;;3.30;;
20449;SDS011;10384;51.940;8.432;2024-03-25T05:09:58;10.53;;;2.30;;
20449;SDS011;10384;51.940;8.432;2024-03-25T05:12:24;10.97;;;2.00;;
20449;SDS011;10384;51.940;8.432;2024-03-25T05:14:55;10.10;;;2.30;;
20449;SDS011;10384;51.940;8.432;2024-03-25T05:17:21;9.93;;;2.03;;
20449;SDS011;10384;51.940;8.432;2024-03-25T05:19:47;8.33;;;2.17;;
20449;SDS011;10384;51.940;8.432;2024-03-25T05:22:13;13.50;;;2.60;;
20449;SDS011;10384;51.940;8.432;2024-03-25T05:24:39;10.17;;;2.40;;
20449;SDS011;10384;51.940;8.432;2024-03-25T05:27:05;15.70;;;1.97;;
20449;SDS011;10384;51.940;8.432;2024-03-25T05:29:31;7.17;;;1.93;;
20449;SDS011;10384;51.940;8.432;2024-03-25T05:32:00;11.03;;;2.00;;
20449;SDS011;10384;51.940;8.432;2024-03-25T05:34:27;6.87;;;1.70;;
20449;SDS011;10384;51.940;8.432;2024-03-25T05:36:53;7.33;;;2.17;;
20449;SDS011;10384;51.940;8.432;2024-03-25T05:39:20;11.03;;;2.30;;
20449;SDS011;10384;51.940;8.432;2024-03-25T05:41:46;8.33;;;2.33;;
20449;SDS011;10384;51.940;8.432;2024-03-25T05:44:12;9.10;;;1.90;;
20449;SDS011;10384;51.940;8.432;2024-03-25T05:46:39;10.00;;;2.20;;
20449;SDS011;10384;51.940;8.432;2024-03-25T05:49:05;12.63;;;2.30;;
20449;SDS011;10384;51.940;8.432;2024-03-25T05:51:31;9.90;;;2.13;;
20449;SDS011;10384;51.940;8.432;2024-03-25T05:54:00;7.07;;;2.10;;
20449;SDS011;10384;51.940;8.432;2024-03-25T05:56:26;7.97;;;2.10;;
20449;SDS011;10384;51.940;8.432;2024-03-25T05:58:59;9.60;;;2.00;;
20449;SDS011;10384;51.940;8.432;2024-03-25T06:01:25;13.73;;;2.43;;
20449;SDS011;10384;51.940;8.432;2024-03-25T06:03:52;11.63;;;2.53;;
20449;SDS011;10384;51.940;8.432;2024-03-25T06:06:18;10.53;;;2.37;;
20449;SDS011;10384;51.940;8.432;2024-03-25T06:08:44;12.33;;;2.77;;
20449;SDS011;10384;51.940;8.432;2024-03-25T06:11:10;15.63;;;2.50;;
20449;SDS011;10384;51.940;8.432;2024-03-25T06:13:36;9.60;;;2.60;;
20449;SDS011;10384;51.940;8.432;2024-03-25T06:16:02;15.50;;;3.20;;
20449;SDS011;10384;51.940;8.432;2024-03-25T06:18:28;10.43;;;3.03;;
20449;SDS011;10384;51.940;8.432;2024-03-25T06:20:54;15.70;;;2.80;;
20449;SDS011;10384;51.940;8.432;2024-03-25T06:23:27;11.83;;;3.00;;
20449;SDS011;10384;51.940;8.432;2024-03-25T06:25:54;16.77;;;3.37;;
20449;SDS011;10384;51.940;8.432;2024-03-25T06:28:20;16.07;;;2.83;;
20449;SDS011;10384;51.940;8.432;2024-03-25T06:30:47;11.80;;;2.87;;
20449;SDS011;10384;51.940;8.432;2024-03-25T06:33:32;12.13;;;3.00;;
20449;SDS011;10384;51.940;8.432;2024-03-25T06:36:17;13.67;;;2.67;;
20449;SDS011;10384;51.940;8.432;2024-03-25T06:38:43;9.27;;;2.47;;
20449;SDS011;10384;51.940;8.432;2024-03-25T06:41:09;16.77;;;2.73;;
20449;SDS011;10384;51.940;8.432;2024-03-25T06:43:35;11.07;;;2.87;;
20449;SDS011;10384;51.940;8.432;2024-03-25T06:46:03;16.13;;;3.70;;
20449;SDS011;10384;51.940;8.432;2024-03-25T06:48:29;14.03;;;3.60;;
20449;SDS011;10384;51.940;8.432;2024-03-25T06:50:58;17.77;;;3.10;;
20449;SDS011;10384;51.940;8.432;2024-03-25T06:53:24;16.90;;;2.83;;
20449;SDS011;10384;51.940;8.432;2024-03-25T06:55:57;12.53;;;3.00;;
20449;SDS011;10384;51.940;8.432;2024-03-25T06:58:24;14.23;;;2.90;;
20449;SDS011;10384;51.940;8.432;2024-03-25T07:00:50;11.40;;;2.80;;
20449;SDS011;10384;51.940;8.432;2024-03-25T07:03:17;14.03;;;3.00;;
20449;SDS011;10384;51.940;8.432;2024-03-25T07:05:50;16.00;;;3.20;;
20449;SDS011;10384;51.940;8.432;2024-03-25T07:08:20;11.10;;;2.60;;
20449;SDS011;10384;51.940;8.432;2024-03-25T07:10:46;8.70;;;2.87;;
20449;SDS011;10384;51.940;8.432;2024-03-25T07:13:12;17.60;;;2.80;;
20449;SDS011;10384;51.940;8.432;2024-03-25T07:15:39;23.77;;;3.73;;
20449;SDS011;10384;51.940;8.432;2024-03-25T07:18:05;10.30;;;2.83;;
20449;SDS011;10384;51.940;8.432;2024-03-25T07:20:31;11.33;;;3.20;;
20449;SDS011;10384;51.940;8.432;2024-03-25T07:22:57;16.27;;;2.80;;
20449;SDS011;10384;51.940;8.432;2024-03-25T07:25:24;12.53;;;3.33;;
20449;SDS011;10384;51.940;8.432;2024-03-25T07:27:50;14.60;;;3.53;;
20449;SDS011;10384;51.940;8.432;2024-03-25T07:30:17;12.67;;;3.27;;
20449;SDS011;10384;51.940;8.432;2024-03-25T07:32:43;18.20;;;4.23;;
20449;SDS011;10384;51.940;8.432;2024-03-25T07:35:10;19.90;;;3.70;;
20449;SDS011;10384;51.940;8.432;2024-03-25T07:37:36;15.73;;;3.83;;
20449;SDS011;10384;51.940;8.432;2024-03-25T07:40:03;17.40;;;4.40;;
20449;SDS011;10384;51.940;8.432;2024-03-25T07:42:29;15.13;;;3.97;;
20449;SDS011;10384;51.940;8.432;2024-03-25T07:44:56;20.23;;;4.43;;
20449;SDS011;10384;51.940;8.432;2024-03-25T07:47:22;17.27;;;4.20;;
20449;SDS011;10384;51.940;8.432;2024-03-25T07:49:48;22.90;;;4.67;;
20449;SDS011;10384;51.940;8.432;2024-03-25T07:52:14;29.57;;;5.00;;
20449;SDS011;10384;51.940;8.432;2024-03-25T07:54:40;18.63;;;5.77;;
20449;SDS011;10384;51.940;8.432;2024-03-25T07:57:08;18.33;;;6.43;;
20449;SDS011;10384;51.940;8.432;2024-03-25T07:59:34;21.60;;;4.97;;
20449;SDS011;10384;51.940;8.432;2024-03-25T08:02:00;14.40;;;5.30;;
20449;SDS011;10384;51.940;8.432;2024-03-25T08:04:26;23.13;;;5.33;;
20449;SDS011;10384;51.940;8.432;2024-03-25T08:06:52;17.93;;;5.77;;
20449;SDS011;10384;51.940;8.432;2024-03-25T08:09:18;19.47;;;5.77;;
20449;SDS011;10384;51.940;8.432;2024-03-25T08:11:45;21.07;;;5.50;;
20449;SDS011;10384;51.940;8.432;2024-03-25T08:14:11;17.37;;;5.20;;
20449;SDS011;10384;51.940;8.432;2024-03-25T08:16:37;20.47;;;4.90;;
20449;SDS011;10384;51.940;8.432;2024-03-25T08:19:03;15.67;;;4.83;;
20449;SDS011;10384;51.940;8.432;2024-03-25T08:21:29;17.33;;;5.03;;
20449;SDS011;10384;51.940;8.432;2024-03-25T08:23:55;22.17;;;5.50;;
20449;SDS011;10384;51.940;8.432;2024-03-25T08:26:21;22.23;;;4.57;;
20449;SDS011;10384;51.940;8.432;2024-03-25T08:28:47;17.27;;;4.90;;
20449;SDS011;10384;51.940;8.432;2024-03-25T08:31:16;18.13;;;4.53;;
20449;SDS011;10384;51.940;8.432;2024-03-25T08:33:42;16.17;;;4.67;;
20449;SDS011;10384;51.940;8.432;2024-03-25T08:36:08;16.10;;;3.83;;
20449;SDS011;10384;51.940;8.432;2024-03-25T08:38:34;17.27;;;4.50;;
20449;SDS011;10384;51.940;8.432;2024-03-25T08:41:00;26.13;;;4.80;;
20449;SDS011;10384;51.940;8.432;2024-03-25T08:43:27;14.37;;;4.10;;
20449;SDS011;10384;51.940;8.432;2024-03-25T08:45:52;17.80;;;3.70;;
20449;SDS011;10384;51.940;8.432;2024-03-25T08:48:18;21.03;;;4.60;;
20449;SDS011;10384;51.940;8.432;2024-03-25T08:50:44;15.77;;;4.50;;
20449;SDS011;10384;51.940;8.432;2024-03-25T08:53:10;16.47;;;3.97;;
20449;SDS011;10384;51.940;8.432;2024-03-25T08:55:37;16.63;;;4.57;;
20449;SDS011;10384;51.940;8.432;2024-03-25T08:58:03;14.20;;;4.10;;
20449;SDS011;10384;51.940;8.432;2024-03-25T09:00:29;19.60;;;4.47;;
20449;SDS011;10384;51.940;8.432;2024-03-25T09:02:55;14.10;;;3.33;;
20449;SDS011;10384;51.940;8.432;2024-03-25T09:05:21;12.60;;;3.40;;
20449;SDS011;10384;51.940;8.432;2024-03-25T09:07:50;16.47;;;4.20;;
20449;SDS011;10384;51.940;8.432;2024-03-25T09:10:19;16.30;;;4.03;;
20449;SDS011;10384;51.940;8.432;2024-03-25T09:13:04;17.17;;;3.83;;
20449;SDS011;10384;51.940;8.432;2024-03-25T09:15:30;13.50;;;3.40;;
20449;SDS011;10384;51.940;8.432;2024-03-25T09:17:56;11.33;;;3.10;;
20449;SDS011;10384;51.940;8.432;2024-03-25T09:20:22;10.07;;;3.30;;
20449;SDS011;10384;51.940;8.432;2024-03-25T09:22:48;10.30;;;3.37;;
20449;SDS011;10384;51.940;8.432;2024-03-25T09:25:15;10.37;;;3.53;;
20449;SDS011;10384;51.940;8.432;2024-03-25T09:27:45;13.23;;;3.60;;
20449;SDS011;10384;51.940;8.432;2024-03-25T09:30:11;15.07;;;2.80;;
20449;SDS011;10384;51.940;8.432;2024-03-25T09:32:37;11.30;;;2.70;;
20449;SDS011;10384;51.940;8.432;2024-03-25T09:35:03;9.00;;;2.50;;
20449;SDS011;10384;51.940;8.432;2024-03-25T09:37:30;8.67;;;2.67;;
20449;SDS011;10384;51.940;8.432;2024-03-25T09:39:57;9.07;;;2.70;;
20449;SDS011;10384;51.940;8.432;2024-03-25T09:45:25;12.70;;;3.03;;
20449;SDS011;10384;51.940;8.432;2024-03-25T09:47:51;15.47;;;3.10;;
20449;SDS011;10384;51.940;8.432;2024-03-25T09:50:17;10.13;;;2.23;;
20449;SDS011;10384;51.940;8.432;2024-03-25T09:52:46;13.60;;;3.03;;
20449;SDS011;10384;51.940;8.432;2024-03-25T09:55:12;11.00;;;2.20;;
20449;SDS011;10384;51.940;8.432;2024-03-25T09:57:38;10.40;;;2.63;;
20449;SDS011;10384;51.940;8.432;2024-03-25T10:00:07;7.87;;;2.07;;
20449;SDS011;10384;51.940;8.432;2024-03-25T10:02:34;8.43;;;1.87;;
20449;SDS011;10384;51.940;8.432;2024-03-25T10:05:00;10.77;;;2.10;;
20449;SDS011;10384;51.940;8.432;2024-03-25T10:07:28;9.77;;;2.13;;
20449;SDS011;10384;51.940;8.432;2024-03-25T10:09:54;7.70;;;2.00;;
20449;SDS011;10384;51.940;8.432;2024-03-25T10:12:21;9.03;;;2.13;;
20449;SDS011;10384;51.940;8.432;2024-03-25T10:14:47;10.23;;;2.27;;
20449;SDS011;10384;51.940;8.432;2024-03-25T10:17:13;8.03;;;2.30;;
20449;SDS011;10384;51.940;8.432;2024-03-25T10:19:39;9.83;;;2.30;;
20449;SDS011;10384;51.940;8.432;2024-03-25T10:22:05;5.20;;;2.13;;
20449;SDS011;10384;51.940;8.432;2024-03-25T10:24:41;8.60;;;2.13;;
20449;SDS011;10384;51.940;8.432;2024-03-25T10:27:16;9.73;;;2.10;;
20449;SDS011;10384;51.940;8.432;2024-03-25T10:29:43;6.00;;;1.27;;
20449;SDS011;10384;51.940;8.432;2024-03-25T10:32:09;7.13;;;1.70;;
20449;SDS011;10384;51.940;8.432;2024-03-25T10:34:35;7.37;;;1.43;;
20449;SDS011;10384;51.940;8.432;2024-03-25T10:37:01;5.20;;;1.33;;
20449;SDS011;10384;51.940;8.432;2024-03-25T10:39:30;3.33;;;1.23;;
20449;SDS011;10384;51.940;8.432;2024-03-25T10:41:57;3.77;;;1.10;;
20449;SDS011;10384;51.940;8.432;2024-03-25T10:44:26;4.97;;;1.20;;
20449;SDS011;10384;51.940;8.432;2024-03-25T10:47:00;5.93;;;1.50;;
20449;SDS011;10384;51.940;8.432;2024-03-25T10:51:53;4.07;;;1.20;;
20449;SDS011;10384;51.940;8.432;2024-03-25T10:54:19;5.17;;;1.47;;
20449;SDS011;10384;51.940;8.432;2024-03-25T10:56:46;4.20;;;1.23;;
20449;SDS011;10384;51.940;8.432;2024-03-25T10:59:16;6.67;;;1.33;;
20449;SDS011;10384;51.940;8.432;2024-03-25T11:01:44;5.10;;;1.00;;
20449;SDS011;10384;51.940;8.432;2024-03-25T11:04:10;5.20;;;1.23;;
20449;SDS011;10384;51.940;8.432;2024-03-25T11:06:36;3.27;;;1.47;;
20449;SDS011;10384;51.940;8.432;2024-03-25T11:09:02;7.80;;;2.23;;
20449;SDS011;10384;51.940;8.432;2024-03-25T11:11:32;3.47;;;1.40;;
20449;SDS011;10384;51.940;8.432;2024-03-25T11:13:58;4.90;;;1.23;;
20449;SDS011;10384;51.940;8.432;2024-03-25T11:16:30;6.93;;;1.40;;
20449;SDS011;10384;51.940;8.432;2024-03-25T11:19:00;4.13;;;1.10;;
20449;SDS011;10384;51.940;8.432;2024-03-25T11:21:26;5.90;;;1.27;;
20449;SDS011;10384;51.940;8.432;2024-03-25T11:23:52;5.30;;;1.33;;
20449;SDS011;10384;51.940;8.432;2024-03-25T11:26:19;6.93;;;1.30;;
20449;SDS011;10384;51.940;8.432;2024-03-25T11:28:46;5.17;;;1.43;;
20449;SDS011;10384;51.940;8.432;2024-03-25T11:31:12;3.30;;;1.20;;
20449;SDS011;10384;51.940;8.432;2024-03-25T11:33:38;6.87;;;1.53;;
20449;SDS011;10384;51.940;8.432;2024-03-25T11:36:05;3.50;;;1.20;;
20449;SDS011;10384;51.940;8.432;2024-03-25T11:38:31;5.47;;;1.20;;
20449;SDS011;10384;51.940;8.432;2024-03-25T11:40:57;4.07;;;1.30;;
20449;SDS011;10384;51.940;8.432;2024-03-25T11:43:23;4.73;;;1.23;;
20449;SDS011;10384;51.940;8.432;2024-03-25T11:45:50;6.00;;;1.20;;
20449;SDS011;10384;51.940;8.432;2024-03-25T11:48:17;3.47;;;1.13;;
20449;SDS011;10384;51.940;8.432;2024-03-25T11:50:46;2.23;;;1.30;;
20449;SDS011;10384;51.940;8.432;2024-03-25T11:53:13;4.33;;;1.20;;
20449;SDS011;10384;51.940;8.432;2024-03-25T11:55:48;5.23;;;1.20;;
20449;SDS011;10384;51.940;8.432;2024-03-25T11:58:15;4.73;;;1.30;;
20449;SDS011;10384;51.940;8.432;2024-03-25T12:00:44;3.27;;;1.10;;
20449;SDS011;10384;51.940;8.432;2024-03-25T12:03:11;3.37;;;1.50;;
20449;SDS011;10384;51.940;8.432;2024-03-25T12:05:39;3.00;;;1.03;;
20449;SDS011;10384;51.940;8.432;2024-03-25T12:08:07;4.90;;;1.37;;
20449;SDS011;10384;51.940;8.432;2024-03-25T12:10:34;5.90;;;1.33;;
20449;SDS011;10384;51.940;8.432;2024-03-25T12:13:19;3.97;;;1.13;;
20449;SDS011;10384;51.940;8.432;2024-03-25T12:15:45;5.57;;;1.10;;
20449;SDS011;10384;51.940;8.432;2024-03-25T12:18:11;3.20;;;1.10;;
20449;SDS011;10384;51.940;8.432;2024-03-25T12:20:37;5.27;;;1.30;;
20449;SDS011;10384;51.940;8.432;2024-03-25T12:23:04;4.70;;;1.13;;
20449;SDS011;10384;51.940;8.432;2024-03-25T12:25:30;5.90;;;1.30;;
20449;SDS011;10384;51.940;8.432;2024-03-25T12:27:56;4.60;;;1.83;;
20449;SDS011;10384;51.940;8.432;2024-03-25T12:30:22;8.53;;;1.30;;
20449;SDS011;10384;51.940;8.432;2024-03-25T12:32:48;8.73;;;1.97;;
20449;SDS011;10384;51.940;8.432;2024-03-25T12:35:15;8.40;;;1.37;;
20449;SDS011;10384;51.940;8.432;2024-03-25T12:37:42;5.47;;;1.33;;
20449;SDS011;10384;51.940;8.432;2024-03-25T12:40:10;6.37;;;1.17;;
20449;SDS011;10384;51.940;8.432;2024-03-25T12:42:36;5.97;;;1.20;;
20449;SDS011;10384;51.940;8.432;2024-03-25T12:45:04;3.10;;;1.20;;
20449;SDS011;10384;51.940;8.432;2024-03-25T12:47:31;7.03;;;2.53;;
20449;SDS011;10384;51.940;8.432;2024-03-25T12:49:57;6.60;;;1.40;;
20449;SDS011;10384;51.940;8.432;2024-03-25T12:52:23;2.57;;;1.90;;
20449;SDS011;10384;51.940;8.432;2024-03-25T12:54:50;4.67;;;1.23;;
20449;SDS011;10384;51.940;8.432;2024-03-25T12:57:15;6.50;;;1.17;;
20449;SDS011;10384;51.940;8.432;2024-03-25T12:59:43;6.43;;;1.40;;
20449;SDS011;10384;51.940;8.432;2024-03-25T13:02:10;5.47;;;1.20;;
20449;SDS011;10384;51.940;8.432;2024-03-25T13:04:37;10.37;;;1.50;;
20449;SDS011;10384;51.940;8.432;2024-03-25T13:07:05;3.10;;;1.60;;
20449;SDS011;10384;51.940;8.432;2024-03-25T13:09:31;4.00;;;1.30;;
20449;SDS011;10384;51.940;8.432;2024-03-25T13:11:57;8.50;;;1.90;;
20449;SDS011;10384;51.940;8.432;2024-03-25T13:14:24;8.67;;;2.67;;
20449;SDS011;10384;51.940;8.432;2024-03-25T13:16:50;6.47;;;1.77;;
20449;SDS011;10384;51.940;8.432;2024-03-25T13:19:16;5.57;;;2.30;;
20449;SDS011;10384;51.940;8.432;2024-03-25T13:21:42;4.80;;;1.30;;
20449;SDS011;10384;51.940;8.432;2024-03-25T13:24:08;4.17;;;1.47;;
20449;SDS011;10384;51.940;8.432;2024-03-25T13:26:34;3.97;;;1.10;;
20449;SDS011;10384;51.940;8.432;2024-03-25T13:29:00;4.87;;;1.40;;
20449;SDS011;10384;51.940;8.432;2024-03-25T13:31:27;5.23;;;1.37;;
20449;SDS011;10384;51.940;8.432;2024-03-25T13:33:53;2.67;;;1.07;;
20449;SDS011;10384;51.940;8.432;2024-03-25T13:36:19;3.93;;;1.13;;
20449;SDS011;10384;51.940;8.432;2024-03-25T13:38:45;4.70;;;1.27;;
20449;SDS011;10384;51.940;8.432;2024-03-25T13:41:11;4.70;;;0.90;;
20449;SDS011;10384;51.940;8.432;2024-03-25T13:43:42;4.03;;;1.10;;
20449;SDS011;10384;51.940;8.432;2024-03-25T13:46:08;3.83;;;1.10;;
20449;SDS011;10384;51.940;8.432;2024-03-25T13:48:34;6.93;;;1.00;;
20449;SDS011;10384;51.940;8.432;2024-03-25T13:51:00;4.43;;;1.10;;
20449;SDS011;10384;51.940;8.432;2024-03-25T13:53:26;9.10;;;1.20;;
20449;SDS011;10384;51.940;8.432;2024-03-25T13:55:52;5.23;;;1.00;;
20449;SDS011;10384;51.940;8.432;2024-03-25T13:58:18;3.83;;;0.90;;
20449;SDS011;10384;51.940;8.432;2024-03-25T14:00:44;2.97;;;1.27;;
20449;SDS011;10384;51.940;8.432;2024-03-25T14:03:10;3.90;;;0.80;;
20449;SDS011;10384;51.940;8.432;2024-03-25T14:05:36;4.50;;;1.03;;
20449;SDS011;10384;51.940;8.432;2024-03-25T14:08:02;4.97;;;1.10;;
20449;SDS011;10384;51.940;8.432;2024-03-25T14:10:28;5.10;;;1.50;;
20449;SDS011;10384;51.940;8.432;2024-03-25T14:12:55;5.50;;;1.13;;
20449;SDS011;10384;51.940;8.432;2024-03-25T14:15:21;2.80;;;0.90;;
20449;SDS011;10384;51.940;8.432;2024-03-25T14:17:47;5.07;;;1.10;;
20449;SDS011;10384;51.940;8.432;2024-03-25T14:20:13;5.43;;;1.27;;
20449;SDS011;10384;51.940;8.432;2024-03-25T14:22:39;2.00;;;1.07;;
20449;SDS011;10384;51.940;8.432;2024-03-25T14:25:05;3.03;;;1.10;;
20449;SDS011;10384;51.940;8.432;2024-03-25T14:27:31;2.80;;;1.10;;
20449;SDS011;10384;51.940;8.432;2024-03-25T14:29:57;2.70;;;1.00;;
20449;SDS011;10384;51.940;8.432;2024-03-25T14:32:23;6.47;;;1.57;;
20449;SDS011;10384;51.940;8.432;2024-03-25T14:34:49;6.93;;;1.40;;
20449;SDS011;10384;51.940;8.432;2024-03-25T14:37:15;4.57;;;1.37;;
20449;SDS011;10384;51.940;8.432;2024-03-25T14:39:41;2.17;;;1.53;;
20449;SDS011;10384;51.940;8.432;2024-03-25T14:42:08;7.43;;;0.90;;